Time;durP1;ratioP1;P1;durP2;ratioP2;P2;SDS_P1;SDS_P2;PMS_P1;PMS_P2;Temp;Humidity;BMP_temperature;BMP_pressure;BME280_temperature;BME280_humidity;BME280_pressure;Samples;Min_cycle;Max_cycle;Signal;HPM_P1;HPM_P2
2023/01/10 00:01:19;;;;;;;5.32;3.38;;;;;;;6.93;100.00;98731.78;6355326;27;20043;-79
2023/01/10 00:04:20;;;;;;;4.32;2.90;;;;;;;7.03;100.00;98739.78;6372129;27;20063;-84
2023/01/10 00:07:21;;;;;;;5.00;3.33;;;;;;;7.01;100.00;98736.47;6359019;27;20057;-79
2023/01/10 00:10:22;;;;;;;5.45;3.30;;;;;;;6.80;100.00;98736.16;6349070;28;20046;-78
2023/01/10 00:13:25;;;;;;;4.28;3.15;;;;;;;6.92;100.00;98737.94;6362619;27;20047;-83
2023/01/10 00:16:28;;;;;;;7.63;3.65;;;;;;;6.91;100.00;98735.44;6356754;27;20051;-83
2023/01/10 00:19:29;;;;;;;5.80;3.15;;;;;;;6.88;100.00;98746.00;6375443;27;20067;-78
2023/01/10 00:22:30;;;;;;;5.75;3.88;;;;;;;6.84;100.00;98735.84;6374035;27;20080;-78
2023/01/10 00:25:35;;;;;;;5.53;4.07;;;;;;;6.90;100.00;98733.75;6356578;27;20055;-79
2023/01/10 00:28:38;;;;;;;8.73;4.15;;;;;;;6.92;100.00;98731.88;6373365;27;20054;-84
2023/01/10 00:31:41;;;;;;;7.13;3.65;;;;;;;6.78;100.00;98720.69;6373727;27;20094;-79
2023/01/10 00:34:44;;;;;;;5.43;3.47;;;;;;;6.80;100.00;98723.19;6373660;27;20047;-84
2023/01/10 00:37:45;;;;;;;7.05;3.70;;;;;;;6.92;100.00;98718.91;6373537;27;20046;-83
2023/01/10 00:40:46;;;;;;;6.40;3.60;;;;;;;6.89;100.00;98727.75;6374910;27;20553;-83
2023/01/10 00:43:56;;;;;;;5.50;4.10;;;;;;;6.81;100.00;98733.44;6374552;27;20046;-78
2023/01/10 00:46:57;;;;;;;7.88;4.10;;;;;;;6.70;100.00;98740.28;6359674;27;20055;-83
2023/01/10 00:49:59;;;;;;;6.40;4.07;;;;;;;6.71;100.00;98726.38;6369483;27;20053;-84
2023/01/10 00:53:00;;;;;;;5.47;3.72;;;;;;;6.69;100.00;98733.44;6359770;27;20487;-81
2023/01/10 00:56:01;;;;;;;4.75;3.38;;;;;;;6.67;100.00;98738.69;6358064;27;20036;-78
2023/01/10 00:59:02;;;;;;;6.03;3.72;;;;;;;6.65;100.00;98736.22;6363850;27;20051;-77
2023/01/10 01:02:03;;;;;;;5.75;3.65;;;;;;;6.69;100.00;98736.00;6363470;27;20489;-78
2023/01/10 01:05:04;;;;;;;5.28;3.90;;;;;;;6.70;100.00;98735.94;6362966;27;20039;-83
2023/01/10 01:08:05;;;;;;;8.95;3.70;;;;;;;6.70;100.00;98735.09;6345375;28;20047;-78
2023/01/10 01:11:06;;;;;;;5.00;3.38;;;;;;;6.72;100.00;98733.25;6361738;27;20108;-78
2023/01/10 01:14:09;;;;;;;6.40;4.40;;;;;;;6.68;100.00;98735.19;6362467;27;20039;-83
2023/01/10 01:17:10;;;;;;;7.75;4.97;;;;;;;6.72;100.00;98730.66;6357350;27;20039;-83
2023/01/10 01:20:11;;;;;;;5.43;4.00;;;;;;;6.66;100.00;98722.31;6370501;27;20415;-83
2023/01/10 01:23:13;;;;;;;6.40;3.92;;;;;;;6.62;100.00;98727.81;6368971;27;20031;-83
2023/01/10 01:26:14;;;;;;;7.55;4.22;;;;;;;6.66;100.00;98724.91;6356486;27;20035;-83
2023/01/10 01:29:15;;;;;;;5.15;3.63;;;;;;;6.79;100.00;98724.94;6346274;27;20088;-78
2023/01/10 01:32:16;;;;;;;7.28;4.70;;;;;;;6.78;100.00;98732.84;6368518;27;20065;-83
2023/01/10 01:35:17;;;;;;;7.78;4.75;;;;;;;6.79;100.00;98735.31;6346306;27;20047;-78
2023/01/10 01:38:17;;;;;;;7.00;4.03;;;;;;;6.84;100.00;98730.66;6353951;27;20874;-83
2023/01/10 01:44:41;;;;;;;5.63;3.67;;;;;;;6.78;100.00;98720.69;6348794;27;20451;-78
2023/01/10 01:47:55;;;;;;;5.90;4.05;;;;;;;6.63;100.00;98706.13;6349812;27;20431;-79
2023/01/10 01:51:08;;;;;;;4.60;3.28;;;;;;;6.61;100.00;98703.66;6367366;27;20051;-79
2023/01/10 01:54:11;;;;;;;7.25;3.92;;;;;;;6.82;100.00;98710.97;6357006;27;20039;-78
2023/01/10 01:57:18;;;;;;;5.75;3.40;;;;;;;6.78;100.00;98709.50;6367324;27;20078;-79
2023/01/10 02:00:19;;;;;;;10.18;3.88;;;;;;;6.72;100.00;98689.16;6363431;27;20038;-83
2023/01/10 02:03:20;;;;;;;7.18;4.20;;;;;;;6.83;100.00;98691.84;6361586;27;20039;-83
2023/01/10 02:06:23;;;;;;;8.23;4.05;;;;;;;6.94;100.00;98702.34;6352033;27;20035;-78
2023/01/10 02:10:01;;;;;;;8.25;4.78;;;;;;;6.99;100.00;98697.66;6348014;27;20414;-83
2023/01/10 02:13:05;;;;;;;6.78;4.22;;;;;;;7.01;100.00;98707.94;6322717;28;20062;-83
2023/01/10 02:16:07;;;;;;;5.88;3.90;;;;;;;7.06;100.00;98709.31;6358448;27;20043;-83
2023/01/10 02:19:36;;;;;;;4.75;3.78;;;;;;;6.98;100.00;98709.00;6367156;27;20067;-83
2023/01/10 02:23:14;;;;;;;4.57;3.20;;;;;;;7.09;100.00;98716.03;6354268;27;20056;-83
2023/01/10 02:26:33;;;;;;;6.50;3.47;;;;;;;7.02;100.00;98727.75;6350110;27;20112;-79
2023/01/10 02:29:57;;;;;;;6.32;3.53;;;;;;;6.90;100.00;98702.63;6367693;27;20406;-79
2023/01/10 02:33:06;;;;;;;7.00;3.55;;;;;;;6.85;100.00;98700.38;6368375;27;20371;-78
2023/01/10 02:36:29;;;;;;;5.95;3.63;;;;;;;6.75;100.00;98704.50;6360754;27;20046;-83
2023/01/10 02:39:40;;;;;;;7.30;3.80;;;;;;;6.73;100.00;98707.19;6346849;27;20513;-79
2023/01/10 02:43:03;;;;;;;5.47;3.67;;;;;;;6.78;100.00;98701.72;6351392;27;20043;-79
2023/01/10 02:46:09;;;;;;;7.22;3.80;;;;;;;6.79;100.00;98704.19;6367744;28;20047;-79
2023/01/10 02:49:10;;;;;;;6.75;4.60;;;;;;;6.73;100.00;98714.97;6355063;28;20101;-78
2023/01/10 02:52:16;;;;;;;5.03;3.58;;;;;;;6.69;100.00;98710.09;6360382;27;20183;-78
2023/01/10 02:55:19;;;;;;;5.78;3.78;;;;;;;6.79;100.00;98713.75;6368694;27;20054;-83
2023/01/10 02:58:32;;;;;;;4.10;2.60;;;;;;;6.73;100.00;98714.97;6368676;27;20108;-84
2023/01/10 03:01:44;;;;;;;13.15;4.30;;;;;;;6.71;100.00;98721.19;6363164;27;20046;-83
2023/01/10 03:05:14;;;;;;;;;;;;;;;6.77;100.00;98725.97;6369687;28;20043;-84
2023/01/10 03:08:21;;;;;;;4.53;3.20;;;;;;;6.75;100.00;98714.88;6330472;28;20003;-83
2023/01/10 03:11:39;;;;;;;4.93;3.58;;;;;;;6.71;100.00;98708.22;6343269;28;20077;-80
2023/01/10 03:14:42;;;;;;;6.78;3.97;;;;;;;6.62;100.00;98720.03;6364762;27;20043;-79
2023/01/10 03:17:48;;;;;;;6.13;3.65;;;;;;;6.61;100.00;98713.19;6368334;27;20410;-79
2023/01/10 03:20:51;;;;;;;7.13;4.07;;;;;;;6.69;100.00;98720.47;6350234;27;20258;-79
2023/01/10 03:23:57;;;;;;;5.32;3.28;;;;;;;6.65;100.00;98710.31;6370504;27;20096;-79
2023/01/10 03:27:26;;;;;;;5.45;4.00;;;;;;;6.61;100.00;98719.22;6364150;27;20498;-83
2023/01/10 03:30:45;;;;;;;6.80;3.75;;;;;;;6.65;100.00;98718.09;6367206;27;20031;-83
2023/01/10 03:33:49;;;;;;;6.50;3.85;;;;;;;6.65;100.00;98731.06;6373794;27;20122;-78
2023/01/10 03:37:18;;;;;;;6.38;3.88;;;;;;;6.66;100.00;98734.47;6366806;27;20039;-83
2023/01/10 03:40:49;;;;;;;4.00;3.47;;;;;;;6.63;100.00;98725.13;6373889;27;20046;-78
2023/01/10 03:47:47;;;;;;;4.28;3.03;;;;;;;6.56;100.00;98717.84;6349057;27;20078;-83
2023/01/10 03:50:49;;;;;;;5.10;3.63;;;;;;;6.65;100.00;98725.88;6364504;27;20344;-84
2023/01/10 03:53:50;;;;;;;;;;;;;;;6.66;100.00;98727.50;6351166;27;20494;-79
2023/01/10 03:56:51;;;;;;;4.65;3.50;;;;;;;6.58;100.00;98724.59;6350244;27;19927;-83
2023/01/10 03:59:56;;;;;;;8.50;4.10;;;;;;;6.68;100.00;98729.19;6369362;27;20088;-79
2023/01/10 04:02:58;;;;;;;6.25;3.70;;;;;;;6.62;100.00;98730.41;6364126;27;20047;-78
2023/01/10 04:05:59;;;;;;;4.72;2.85;;;;;;;6.72;100.00;98734.06;6361770;27;20497;-83
2023/01/10 04:09:00;;;;;;;5.15;3.67;;;;;;;6.76;100.00;98739.88;6350577;27;20043;-78
2023/01/10 04:12:01;;;;;;;9.85;4.82;;;;;;;6.70;100.00;98729.91;6360967;27;20409;-78
2023/01/10 04:15:01;;;;;;;6.30;3.45;;;;;;;6.61;100.00;98729.59;6369050;27;20031;-83
2023/01/10 04:18:02;;;;;;;6.18;3.70;;;;;;;6.64;100.00;98736.31;6363824;27;20058;-79
2023/01/10 04:21:03;;;;;;;6.38;4.32;;;;;;;6.64;100.00;98749.28;6366007;27;20050;-83
2023/01/10 04:24:04;;;;;;;5.40;3.65;;;;;;;6.68;100.00;98752.50;6359221;27;20097;-79
2023/01/10 04:27:06;;;;;;;4.43;3.00;;;;;;;6.64;100.00;98741.50;6356661;27;20040;-83
2023/01/10 04:30:08;;;;;;;12.93;4.05;;;;;;;6.60;100.00;98753.84;6347153;27;20036;-82
2023/01/10 04:33:11;;;;;;;4.97;3.50;;;;;;;6.60;100.00;98755.59;6365322;27;20047;-78
2023/01/10 04:36:12;;;;;;;6.13;3.25;;;;;;;6.58;100.00;98755.69;6369168;27;20565;-82
2023/01/10 04:39:13;;;;;;;5.72;3.63;;;;;;;6.63;100.00;98764.00;6368638;27;20053;-78
2023/01/10 04:42:16;;;;;;;6.63;4.00;;;;;;;6.73;100.00;98776.34;6370110;27;20495;-82
2023/01/10 04:45:19;;;;;;;7.28;3.70;;;;;;;6.74;100.00;98772.84;6361104;27;20506;-82
2023/01/10 04:48:20;;;;;;;6.88;3.80;;;;;;;6.74;100.00;98772.84;6363545;27;20031;-83
2023/01/10 04:51:21;;;;;;;6.00;3.85;;;;;;;6.75;100.00;98771.91;6359369;27;20096;-79
2023/01/10 04:54:21;;;;;;;5.18;3.67;;;;;;;6.71;100.00;98771.28;6368115;27;20043;-83
2023/01/10 04:57:25;;;;;;;6.65;3.70;;;;;;;6.64;100.00;98770.03;6346362;27;20039;-79
2023/01/10 05:00:29;;;;;;;7.93;3.33;;;;;;;6.63;100.00;98755.38;6357780;27;20039;-83
2023/01/10 05:03:30;;;;;;;7.30;3.75;;;;;;;6.65;100.00;98763.88;6361066;27;20093;-79
2023/01/10 05:06:31;;;;;;;4.40;2.95;;;;;;;6.71;100.00;98775.63;6352159;27;20465;-83
2023/01/10 05:09:32;;;;;;;5.67;3.40;;;;;;;6.75;100.00;98777.09;6350118;27;20097;-83
2023/01/10 05:12:35;;;;;;;12.48;4.05;;;;;;;6.70;100.00;98784.34;6366305;27;20064;-83
2023/01/10 05:15:36;;;;;;;4.43;3.42;;;;;;;6.59;100.00;98783.28;6360525;27;20039;-79
2023/01/10 05:18:37;;;;;;;5.28;3.25;;;;;;;6.68;100.00;98781.03;6368322;27;20050;-83
2023/01/10 05:21:38;;;;;;;10.60;3.70;;;;;;;6.62;100.00;98775.28;6368339;27;20035;-83
2023/01/10 05:24:38;;;;;;;7.20;3.50;;;;;;;6.71;100.00;98780.81;6363812;27;20107;-82
2023/01/10 05:27:41;;;;;;;6.35;3.00;;;;;;;6.66;100.00;98789.72;6355495;27;20460;-82
2023/01/10 05:30:42;;;;;;;5.93;3.17;;;;;;;6.63;100.00;98805.47;6345758;27;20043;-79
2023/01/10 05:33:47;;;;;;;6.57;3.95;;;;;;;6.60;100.00;98813.44;6350275;27;20130;-79
2023/01/10 05:36:50;;;;;;;8.77;5.30;;;;;;;6.55;100.00;98814.69;6356049;27;20122;-79
2023/01/10 05:39:52;;;;;;;5.32;3.63;;;;;;;6.55;100.00;98814.69;6361454;27;20067;-83
2023/01/10 05:42:53;;;;;;;6.60;3.90;;;;;;;6.48;100.00;98800.44;6347084;27;20032;-83
2023/01/10 05:45:54;;;;;;;12.73;4.22;;;;;;;6.47;100.00;98816.94;6363435;27;20040;-79
2023/01/10 05:48:55;;;;;;;4.95;2.83;;;;;;;6.60;100.00;98823.81;6365453;27;20050;-79
2023/01/10 05:51:56;;;;;;;3.88;3.05;;;;;;;6.56;100.00;98822.34;6367566;27;20039;-83
2023/01/10 05:54:57;;;;;;;4.85;3.72;;;;;;;6.53;100.00;98832.94;6361045;27;20579;-83
2023/01/10 05:57:58;;;;;;;5.00;3.33;;;;;;;6.49;100.00;98836.63;6365641;27;20032;-79
2023/01/10 06:00:58;;;;;;;6.85;3.65;;;;;;;6.52;100.00;98845.97;6364223;27;20479;-79
2023/01/10 06:03:59;;;;;;;4.55;3.45;;;;;;;6.42;100.00;98848.31;6353812;27;20483;-79
2023/01/10 06:07:00;;;;;;;5.95;3.90;;;;;;;6.41;100.00;98849.25;6354515;27;20115;-79
2023/01/10 06:10:01;;;;;;;7.70;2.88;;;;;;;6.37;100.00;98840.81;6344263;28;20047;-83
2023/01/10 06:13:08;;;;;;;4.95;2.85;;;;;;;6.54;100.00;98863.06;6343993;28;20101;-83
2023/01/10 06:16:09;;;;;;;4.95;3.42;;;;;;;6.46;100.00;98860.13;6350291;27;20035;-79
2023/01/10 06:19:12;;;;;;;8.23;3.47;;;;;;;6.47;100.00;98848.03;6348596;27;20133;-79
2023/01/10 06:22:13;;;;;;;5.70;3.00;;;;;;;6.48;100.00;98860.06;6357669;27;20039;-79
2023/01/10 06:25:14;;;;;;;5.10;3.38;;;;;;;6.44;100.00;98851.63;6359839;27;20043;-83
2023/01/10 06:28:17;;;;;;;6.70;4.13;;;;;;;6.55;100.00;98848.38;6368171;27;20406;-79
2023/01/10 06:31:17;;;;;;;8.43;3.10;;;;;;;6.57;100.00;98854.28;6356471;27;20047;-79
2023/01/10 06:34:18;;;;;;;7.88;4.07;;;;;;;6.50;100.00;98861.59;6340419;27;20043;-83
2023/01/10 06:37:19;;;;;;;4.28;3.03;;;;;;;6.53;100.00;98865.78;6368073;28;20491;-83
2023/01/10 06:40:20;;;;;;;5.43;3.55;;;;;;;6.58;100.00;98885.28;6360290;27;20040;-79
2023/01/10 06:43:21;;;;;;;9.88;5.10;;;;;;;6.59;100.00;98875.75;6361301;28;20043;-84
2023/01/10 06:46:22;;;;;;;8.40;4.22;;;;;;;6.56;100.00;98868.16;6345622;28;20047;-80
2023/01/10 06:49:22;;;;;;;12.77;5.13;;;;;;;6.57;100.00;98867.22;6351607;27;20108;-83
2023/01/10 06:52:23;;;;;;;7.28;4.40;;;;;;;6.51;100.00;98865.88;6373808;27;20034;-84
2023/01/10 06:55:25;;;;;;;8.13;4.50;;;;;;;6.60;100.00;98880.00;6373435;27;20035;-84
2023/01/10 06:58:26;;;;;;;9.52;4.78;;;;;;;6.57;100.00;98886.22;6374380;27;20046;-85
2023/01/10 07:01:29;;;;;;;7.43;4.28;;;;;;;6.56;100.00;98888.91;6371668;27;20040;-84
2023/01/10 07:04:33;;;;;;;6.18;4.15;;;;;;;6.52;100.00;98903.81;6360903;27;20553;-84
2023/01/10 07:07:36;;;;;;;6.45;4.03;;;;;;;6.54;100.00;98914.09;6356311;27;21104;-84
2023/01/10 07:10:42;;;;;;;4.85;3.53;;;;;;;6.45;100.00;98910.31;6375831;27;20039;-80
2023/01/10 07:13:42;;;;;;;5.32;3.67;;;;;;;6.57;100.00;98911.28;6373685;27;20095;-80
2023/01/10 07:16:43;;;;;;;11.38;4.70;;;;;;;6.50;100.00;98912.63;6374843;27;20376;-80
2023/01/10 07:19:44;;;;;;;7.13;4.75;;;;;;;6.57;100.00;98921.66;6373577;27;20035;-80
2023/01/10 07:22:56;;;;;;;7.22;4.60;;;;;;;6.60;100.00;98940.44;6373460;27;20058;-80
2023/01/10 07:25:57;;;;;;;11.40;4.32;;;;;;;6.58;100.00;98950.06;6373427;27;20043;-80
2023/01/10 07:28:58;;;;;;;7.30;4.45;;;;;;;6.56;100.00;98946.75;6374546;27;20035;-83
2023/01/10 07:32:01;;;;;;;6.63;4.32;;;;;;;6.51;100.00;98927.25;6372726;27;20474;-84
2023/01/10 07:35:02;;;;;;;11.02;6.68;;;;;;;6.58;100.00;98929.34;6373004;27;20478;-84
2023/01/10 07:38:07;;;;;;;10.23;6.35;;;;;;;6.54;100.00;98940.81;6373298;27;20061;-84
2023/01/10 07:41:08;;;;;;;10.93;5.85;;;;;;;6.59;100.00;98930.16;6373228;27;20515;-84
2023/01/10 07:44:12;;;;;;;7.85;5.03;;;;;;;6.50;100.00;98933.34;6373303;27;20039;-80
2023/01/10 07:47:13;;;;;;;8.80;4.30;;;;;;;6.36;100.00;98923.81;6355502;27;20062;-85
2023/01/10 07:50:14;;;;;;;10.68;5.88;;;;;;;6.54;100.00;98924.44;6373897;27;20035;-80
2023/01/10 07:53:15;;;;;;;7.50;5.07;;;;;;;6.56;100.00;98933.78;6374090;27;20566;-81
2023/01/10 07:56:16;;;;;;;8.45;5.18;;;;;;;6.53;100.00;98928.81;6372682;27;20057;-84
2023/01/10 07:59:17;;;;;;;6.95;5.10;;;;;;;6.67;100.00;98930.53;6372814;27;20440;-84
2023/01/10 08:02:18;;;;;;;9.30;5.18;;;;;;;6.65;100.00;98937.56;6372903;27;20043;-84
2023/01/10 08:05:19;;;;;;;6.32;4.43;;;;;;;6.73;100.00;98942.28;6373877;27;20398;-84
2023/01/10 08:08:22;;;;;;;8.35;4.40;;;;;;;6.78;100.00;98966.16;6373650;27;20104;-84
2023/01/10 08:11:23;;;;;;;5.13;3.53;;;;;;;6.78;100.00;98974.75;6373338;27;20039;-81
2023/01/10 08:14:24;;;;;;;7.00;4.68;;;;;;;6.70;100.00;98966.63;6372313;27;20043;-80
2023/01/10 08:17:24;;;;;;;7.88;4.38;;;;;;;6.68;100.00;98983.22;6372261;27;20046;-81
2023/01/10 08:20:26;;;;;;;5.00;3.67;;;;;;;6.61;100.00;98982.75;6373150;27;20063;-81
2023/01/10 08:23:26;;;;;;;8.25;4.00;;;;;;;6.63;100.00;98986.94;6373062;27;20050;-81
2023/01/10 08:26:27;;;;;;;6.80;4.25;;;;;;;6.75;100.00;98995.69;6354881;27;20475;-84
2023/01/10 08:29:28;;;;;;;5.95;4.15;;;;;;;6.78;100.00;99010.25;6371892;27;20100;-84
2023/01/10 08:32:29;;;;;;;7.57;4.70;;;;;;;6.79;100.00;99017.06;6354492;27;20049;-80
2023/01/10 08:35:30;;;;;;;10.45;5.22;;;;;;;6.85;100.00;99038.25;6371658;27;20039;-84
2023/01/10 08:38:32;;;;;;;7.17;4.90;;;;;;;6.84;100.00;99038.38;6372549;27;20318;-84
2023/01/10 08:41:33;;;;;;;4.80;3.47;;;;;;;6.92;100.00;99054.31;6371542;27;20063;-84
2023/01/10 08:44:34;;;;;;;6.07;3.67;;;;;;;7.01;100.00;99058.06;6372867;27;20041;-84
2023/01/10 08:47:34;;;;;;;5.68;3.25;;;;;;;6.98;100.00;99074.66;6371285;27;20423;-84
2023/01/10 08:50:35;;;;;;;10.18;4.50;;;;;;;7.07;100.00;99081.03;6371270;27;20083;-80
2023/01/10 08:53:38;;;;;;;6.85;4.25;;;;;;;7.11;100.00;99082.53;6371335;27;20043;-80
2023/01/10 08:56:40;;;;;;;7.65;4.70;;;;;;;7.18;100.00;99078.59;6371368;27;20110;-84
2023/01/10 08:59:43;;;;;;;7.53;4.25;;;;;;;7.10;100.00;99075.66;6371148;27;20471;-84
2023/01/10 09:02:43;;;;;;;6.55;4.38;;;;;;;7.10;100.00;99101.59;6371207;27;20035;-80
2023/01/10 09:05:46;;;;;;;8.27;4.35;;;;;;;7.11;100.00;99116.25;6353575;27;20096;-80
2023/01/10 09:08:47;;;;;;;7.45;4.82;;;;;;;7.15;100.00;99114.31;6371147;27;20039;-84
2023/01/10 09:11:48;;;;;;;8.07;4.20;;;;;;;7.10;100.00;99124.94;6372342;27;20039;-80
2023/01/10 09:14:49;;;;;;;6.07;4.32;;;;;;;7.09;100.00;99123.28;6369776;27;20175;-80
2023/01/10 09:17:55;;;;;;;8.57;4.15;;;;;;;7.16;100.00;99127.16;6371237;27;20164;-80
2023/01/10 09:20:56;;;;;;;8.10;4.10;;;;;;;7.05;100.00;99124.41;6353710;27;20047;-80
2023/01/10 09:23:57;;;;;;;6.97;3.47;;;;;;;7.14;100.00;99129.00;6370532;27;20042;-80
2023/01/10 09:26:58;;;;;;;8.57;5.35;;;;;;;7.22;100.00;99131.13;6370903;27;20047;-86
2023/01/10 09:30:01;;;;;;;8.23;4.45;;;;;;;7.26;100.00;99141.22;6353328;27;20468;-80
2023/01/10 09:33:03;;;;;;;10.32;5.35;;;;;;;7.14;100.00;99129.00;6370488;27;20046;-81
2023/01/10 09:36:04;;;;;;;6.47;4.60;;;;;;;7.17;100.00;99151.34;6370797;27;20042;-85
2023/01/10 09:39:09;;;;;;;6.75;4.60;;;;;;;7.17;100.00;99156.53;6353043;27;20411;-80
2023/01/10 09:42:19;;;;;;;8.05;5.13;;;;;;;7.19;100.00;99163.31;6369785;27;20039;-80
2023/01/10 09:45:25;;;;;;;9.45;5.45;;;;;;;7.12;100.00;99162.00;6358296;27;20460;-85
2023/01/10 09:48:47;;;;;;;8.38;4.85;;;;;;;7.18;100.00;99169.41;6352831;27;20066;-80
2023/01/10 09:51:51;;;;;;;10.15;5.38;;;;;;;7.12;100.00;99171.53;6370028;27;20544;-84
2023/01/10 09:54:55;;;;;;;6.57;4.50;;;;;;;7.15;100.00;99166.19;6369485;27;20036;-80
2023/01/10 09:58:01;;;;;;;7.35;4.95;;;;;;;7.21;100.00;99173.59;6352946;27;20118;-85
2023/01/10 10:01:18;;;;;;;8.45;5.38;;;;;;;7.25;100.00;99175.91;6369643;27;20054;-80
2023/01/10 10:04:29;;;;;;;8.13;4.60;;;;;;;7.28;100.00;99179.25;6369645;27;20478;-80
2023/01/10 10:07:32;;;;;;;17.05;6.10;;;;;;;7.18;100.00;99189.34;6369975;27;20046;-80
2023/01/10 10:11:19;;;;;;;10.35;5.50;;;;;;;7.21;100.00;99186.56;6369510;27;20047;-80
2023/01/10 10:14:41;;;;;;;7.72;4.43;;;;;;;7.04;100.00;99174.59;6370755;27;20486;-85
2023/01/10 10:17:46;;;;;;;8.77;5.47;;;;;;;7.05;100.00;99182.28;6369777;27;20093;-80
2023/01/10 10:21:15;;;;;;;9.48;6.10;;;;;;;7.18;100.00;99179.78;6370598;27;20047;-85
2023/01/10 10:24:41;;;;;;;8.10;5.00;;;;;;;7.25;100.00;99195.84;6369294;27;20043;-80
2023/01/10 10:27:44;;;;;;;8.43;4.32;;;;;;;7.25;100.00;99186.28;6369622;27;20039;-85
2023/01/10 10:31:03;;;;;;;13.45;6.50;;;;;;;7.04;100.00;99174.59;6370599;27;20039;-85
2023/01/10 10:34:27;;;;;;;10.75;6.60;;;;;;;7.04;100.00;99188.41;6370493;27;20042;-80
2023/01/10 10:37:48;;;;;;;10.77;6.03;;;;;;;7.11;100.00;99198.44;6352429;27;20058;-79
2023/01/10 10:40:52;;;;;;;9.57;5.75;;;;;;;7.14;100.00;99190.44;6351911;28;20080;-80
2023/01/10 10:43:54;;;;;;;7.18;4.75;;;;;;;7.13;100.00;99193.97;6352036;27;20510;-84
2023/01/10 10:46:58;;;;;;;12.00;6.07;;;;;;;7.14;100.00;99190.44;6369005;27;20057;-80
2023/01/10 10:50:31;;;;;;;9.27;5.05;;;;;;;7.23;100.00;99202.88;6369173;27;20040;-80
2023/01/10 10:53:33;;;;;;;7.78;4.53;;;;;;;7.28;100.00;99208.59;6365876;28;20051;-84
2023/01/10 10:56:34;;;;;;;7.28;4.93;;;;;;;7.26;100.00;99210.47;6351711;28;20047;-80
2023/01/10 10:59:35;;;;;;;10.35;5.30;;;;;;;7.24;100.00;99213.13;6368786;28;20482;-80
2023/01/10 11:02:46;;;;;;;9.10;5.50;;;;;;;7.30;100.00;99221.50;6368882;27;20311;-84
2023/01/10 11:05:48;;;;;;;9.30;4.68;;;;;;;7.20;100.00;99232.41;6369243;27;20043;-84
2023/01/10 11:08:55;;;;;;;7.20;3.63;;;;;;;7.10;100.00;99212.31;6370305;27;20047;-85
2023/01/10 11:11:58;;;;;;;11.65;5.32;;;;;;;7.04;100.00;99216.97;6368712;27;20071;-80
2023/01/10 11:15:01;;;;;;;7.90;4.88;;;;;;;7.12;100.00;99223.44;6368944;27;20490;-85
2023/01/10 11:18:16;;;;;;;7.07;4.70;;;;;;;7.03;100.00;99212.69;6350942;27;20057;-80
2023/01/10 11:21:18;;;;;;;10.55;5.55;;;;;;;7.14;100.00;99226.75;6362985;27;20376;-85
2023/01/10 11:24:49;;;;;;;13.90;6.93;;;;;;;7.09;100.00;99232.22;6361058;28;20062;-80
2023/01/10 11:27:53;;;;;;;9.18;5.45;;;;;;;7.15;100.00;99239.66;6361766;27;20031;-85
2023/01/10 11:30:57;;;;;;;10.95;6.50;;;;;;;7.18;100.00;99238.63;6349598;28;20415;-80
2023/01/10 11:34:07;;;;;;;11.52;6.53;;;;;;;7.35;100.00;99245.38;6341747;28;20092;-84
2023/01/10 11:37:17;;;;;;;12.98;7.30;;;;;;;7.43;100.00;99245.75;6345591;28;20040;-85
2023/01/10 11:40:19;;;;;;;14.13;8.02;;;;;;;7.40;100.00;99251.97;6348395;28;20040;-85
2023/01/10 11:43:35;;;;;;;19.55;9.10;;;;;;;7.36;100.00;99247.06;6347899;28;20038;-85
2023/01/10 11:46:39;;;;;;;13.55;8.07;;;;;;;7.46;100.00;99250.78;6348009;28;20055;-85
2023/01/10 11:49:44;;;;;;;13.75;8.18;;;;;;;7.54;100.00;99264.13;6331144;28;20052;-80
2023/01/10 11:52:47;;;;;;;13.50;8.13;;;;;;;7.37;100.00;99259.09;6330825;28;20047;-80
2023/01/10 11:55:48;;;;;;;14.65;8.23;;;;;;;7.37;100.00;99259.09;6347911;28;20088;-85
2023/01/10 11:58:49;;;;;;;14.07;8.77;;;;;;;7.49;100.00;99279.13;6371138;27;20410;-80
2023/01/10 12:02:01;;;;;;;17.85;9.43;;;;;;;7.51;100.00;99279.03;6373020;27;20043;-85
2023/01/10 12:05:05;;;;;;;17.27;9.97;;;;;;;7.42;100.00;99288.22;6356071;27;20053;-80
2023/01/10 12:08:08;;;;;;;20.05;9.48;;;;;;;7.44;100.00;99283.78;6372571;27;20047;-80
2023/01/10 12:11:12;;;;;;;18.52;8.73;;;;;;;7.48;100.00;99293.06;6355233;27;20051;-84
2023/01/10 12:14:19;;;;;;;15.98;8.00;;;;;;;7.30;100.00;99296.75;6372101;27;20621;-79
2023/01/10 12:17:30;;;;;;;15.23;8.38;;;;;;;7.59;100.00;99307.97;6355051;27;20135;-80
2023/01/10 12:20:41;;;;;;;10.38;7.43;;;;;;;7.64;100.00;99311.97;6373688;27;20043;-80
2023/01/10 12:23:45;;;;;;;10.52;6.50;;;;;;;7.53;100.00;99314.38;6371804;27;20448;-84
2023/01/10 12:26:50;;;;;;;18.55;8.20;;;;;;;7.67;100.00;99316.97;6371824;27;20109;-84
2023/01/10 12:30:10;;;;;;;13.45;8.10;;;;;;;7.65;100.00;99316.22;6371626;27;20380;-84
2023/01/10 12:33:17;;;;;;;14.73;7.43;;;;;;;7.52;100.00;99322.25;6346160;28;20509;-84
2023/01/10 12:36:43;;;;;;;15.27;9.60;;;;;;;7.54;100.00;99323.00;6353516;27;20172;-80
2023/01/10 12:39:51;;;;;;;14.20;8.07;;;;;;;7.60;100.00;99325.25;6369751;27;20479;-79
2023/01/10 12:46:34;;;;;;;9.80;6.55;;;;;;;7.54;100.00;99318.66;6372644;27;20051;-80
2023/01/10 12:50:26;;;;;;;11.60;7.38;;;;;;;7.59;100.00;99321.78;6353956;27;20143;-80
2023/01/10 12:53:44;;;;;;;14.48;7.85;;;;;;;7.54;100.00;99329.03;6360270;27;20065;-85
2023/01/10 12:56:46;;;;;;;11.93;5.57;;;;;;;7.43;100.00;99331.41;6354424;27;20460;-85
2023/01/10 12:59:48;;;;;;;7.57;5.35;;;;;;;7.45;100.00;99339.94;6370635;27;20509;-80
2023/01/10 13:02:53;;;;;;;9.97;6.33;;;;;;;7.47;100.00;99354.53;6371064;27;20039;-80
2023/01/10 13:05:56;;;;;;;10.07;5.63;;;;;;;7.38;100.00;99357.66;6370883;27;20267;-80
2023/01/10 13:09:02;;;;;;;10.70;6.13;;;;;;;7.44;100.00;99367.66;6353778;27;20043;-85
2023/01/10 13:12:37;;;;;;;10.77;6.03;;;;;;;7.45;100.00;99369.34;6372204;27;20064;-84
2023/01/10 13:15:46;;;;;;;9.15;5.30;;;;;;;7.18;100.00;99356.22;6371941;27;20447;-80
2023/01/10 13:19:09;;;;;;;7.38;4.78;;;;;;;7.29;100.00;99363.41;6370610;27;20497;-84
2023/01/10 13:22:22;;;;;;;8.57;4.60;;;;;;;7.24;100.00;99365.41;6353646;27;20077;-84
2023/01/10 13:25:26;;;;;;;13.57;3.67;;;;;;;7.22;100.00;99365.47;6371792;27;20046;-84
2023/01/10 13:28:29;;;;;;;4.18;3.22;;;;;;;7.15;100.00;99364.19;6370573;27;20078;-84
2023/01/10 13:31:32;;;;;;;5.10;3.60;;;;;;;7.12;100.00;99360.94;6353366;27;20043;-80
2023/01/10 13:34:35;;;;;;;4.78;3.58;;;;;;;6.86;100.00;99368.44;6370152;27;20050;-80
2023/01/10 13:37:40;;;;;;;;;;;;;;;6.92;100.00;99370.69;6370764;27;20278;-84
2023/01/10 13:40:59;;;;;;;7.00;3.38;;;;;;;6.83;100.00;99374.63;6371504;27;20339;-84
2023/01/10 13:44:07;;;;;;;3.58;2.63;;;;;;;6.71;100.00;99364.13;6371160;27;20127;-84
2023/01/10 13:47:08;;;;;;;7.40;3.10;;;;;;;6.72;100.00;99394.31;6352951;27;20055;-82
2023/01/10 13:50:50;;;;;;;6.70;3.88;;;;;;;6.71;100.00;99397.81;6370385;27;20046;-79
2023/01/10 13:53:59;;;;;;;7.13;4.00;;;;;;;6.75;100.00;99402.75;6364627;27;20047;-84
2023/01/10 13:56:59;;;;;;;5.93;3.60;;;;;;;6.64;100.00;99399.91;6352800;27;20043;-79
2023/01/10 14:03:35;;;;;;;;;;;;;;;6.47;100.00;99419.00;6349346;27;20051;-84
2023/01/10 14:06:40;;;;;;;1.55;1.17;;;;;;;6.42;100.00;99411.47;6369848;27;20156;-80
2023/01/10 14:09:44;;;;;;;2.10;1.83;;;;;;;6.60;100.00;99421.75;6369803;27;20039;-80
2023/01/10 14:12:50;;;;;;;2.90;1.88;;;;;;;6.45;100.00;99429.44;6370544;27;20102;-80
2023/01/10 14:15:51;;;;;;;2.85;1.88;;;;;;;6.35;100.00;99427.44;6352160;27;20051;-80
2023/01/10 14:18:52;;;;;;;2.45;1.88;;;;;;;6.14;100.00;99424.22;6369378;27;20035;-84
2023/01/10 14:21:55;;;;;;;1.90;1.23;;;;;;;6.25;100.00;99434.84;6369368;27;20142;-81
2023/01/10 14:24:58;;;;;;;1.13;1.02;;;;;;;6.33;100.00;99437.88;6369212;27;20478;-84
2023/01/10 14:28:00;;;;;;;4.13;2.70;;;;;;;6.27;100.00;99445.13;6369228;27;20053;-79
2023/01/10 14:31:06;;;;;;;6.78;3.47;;;;;;;6.17;100.00;99453.38;6369302;27;20043;-84
2023/01/10 14:34:21;;;;;;;3.10;1.50;;;;;;;6.28;100.00;99450.25;6369220;27;20039;-84
2023/01/10 14:37:36;;;;;;;3.45;1.75;;;;;;;6.20;100.00;99455.00;6369083;27;20501;-84
2023/01/10 14:40:42;;;;;;;2.00;0.80;;;;;;;5.96;100.00;99457.91;6370572;27;20042;-80
2023/01/10 14:43:56;;;;;;;2.25;1.20;;;;;;;6.18;100.00;99462.84;6370205;27;20478;-80
2023/01/10 14:47:03;;;;;;;2.80;1.35;;;;;;;6.19;100.00;99461.91;6369045;27;20534;-83